Time;durP1;ratioP1;P1;durP2;ratioP2;P2;SDS_P1;SDS_P2;PMS_P1;PMS_P2;Temp;Humidity;BMP_temperature;BMP_pressure;BME280_temperature;BME280_humidity;BME280_pressure;Samples;Min_cycle;Max_cycle;Signal;HPM_P1;HPM_P2
2022/04/10 00:01:36;;;;;;;3.10;2.00;;;;;;;5.35;89.93;96410.06;5041332;28;20401;-83
2022/04/10 00:04:03;;;;;;;2.67;2.20;;;;;;;5.26;90.08;96417.44;5033257;28;20215;-82
2022/04/10 00:06:31;;;;;;;3.10;2.63;;;;;;;5.20;90.88;96415.50;5036646;28;20207;-82
2022/04/10 00:08:59;;;;;;;5.57;2.60;;;;;;;5.23;90.77;96415.13;5034596;28;20211;-83
2022/04/10 00:11:26;;;;;;;5.10;3.07;;;;;;;5.15;91.25;96417.97;5041282;28;20586;-82
2022/04/10 00:13:53;;;;;;;3.57;2.80;;;;;;;5.06;92.42;96412.94;5032961;28;20207;-83
2022/04/10 00:16:22;;;;;;;3.40;2.57;;;;;;;5.07;92.74;96411.94;5038068;28;20290;-83
2022/04/10 00:18:49;;;;;;;2.93;2.30;;;;;;;5.03;92.64;96424.84;5034888;28;20317;-82
2022/04/10 00:21:17;;;;;;;2.93;2.40;;;;;;;5.09;92.61;96423.28;5037795;28;20248;-82
2022/04/10 00:23:45;;;;;;;3.00;1.90;;;;;;;5.08;92.24;96430.47;5042711;28;20276;-82
2022/04/10 00:26:13;;;;;;;2.50;1.90;;;;;;;5.07;91.99;96428.81;5041011;28;20226;-82
2022/04/10 00:28:41;;;;;;;5.00;1.93;;;;;;;5.07;92.54;96419.94;5032740;28;20198;-83
2022/04/10 00:31:09;;;;;;;3.90;1.97;;;;;;;5.15;90.68;96423.31;5041746;28;20194;-82
2022/04/10 00:33:37;;;;;;;2.10;1.80;;;;;;;5.14;90.90;96420.81;5036003;28;20213;-83
2022/04/10 00:36:05;;;;;;;2.80;1.80;;;;;;;5.18;91.40;96414.91;5041105;28;20206;-82
2022/04/10 00:38:32;;;;;;;2.17;1.90;;;;;;;5.16;91.84;96422.28;5034484;28;20289;-83
2022/04/10 00:41:00;;;;;;;2.20;1.90;;;;;;;5.20;91.81;96418.19;5031046;28;20206;-83
2022/04/10 00:43:32;;;;;;;1.93;1.73;;;;;;;5.14;91.20;96418.16;5045507;28;20194;-83
2022/04/10 00:45:59;;;;;;;2.40;2.20;;;;;;;5.01;92.13;96421.56;5034898;28;20257;-83
2022/04/10 00:48:27;;;;;;;2.60;2.40;;;;;;;5.05;92.78;96430.84;5036990;28;20203;-82
2022/04/10 00:53:41;;;;;;;2.10;1.90;;;;;;;5.10;91.63;96431.13;5039368;28;20896;-82
2022/04/10 00:56:10;;;;;;;2.67;1.90;;;;;;;5.03;92.69;96432.88;5038199;28;20252;-83
2022/04/10 00:58:37;;;;;;;2.57;2.17;;;;;;;4.92;95.25;96433.44;5036066;28;20296;-83
2022/04/10 01:01:04;;;;;;;2.10;1.90;;;;;;;4.85;96.17;96444.03;5038733;28;20230;-83
2022/04/10 01:03:31;;;;;;;3.20;1.90;;;;;;;4.75;96.60;96440.06;5038175;28;20218;-82
2022/04/10 01:05:59;;;;;;;3.67;2.40;;;;;;;4.76;96.71;96431.84;5040627;28;20241;-82
2022/04/10 01:08:27;;;;;;;2.37;2.13;;;;;;;4.77;96.54;96441.50;5034211;28;20278;-82
2022/04/10 01:10:55;;;;;;;2.30;2.10;;;;;;;4.68;96.94;96423.94;5037984;28;20214;-83
2022/04/10 01:13:24;;;;;;;3.47;2.37;;;;;;;4.63;98.51;96420.19;5041382;28;20214;-83
2022/04/10 01:15:51;;;;;;;2.90;2.20;;;;;;;4.56;99.26;96426.31;5038051;28;20210;-82
2022/04/10 01:18:20;;;;;;;2.77;2.50;;;;;;;4.60;99.38;96439.28;5036204;28;20214;-82
2022/04/10 01:20:47;;;;;;;2.47;2.27;;;;;;;4.59;99.89;96434.97;5034413;28;20298;-83
2022/04/10 01:23:16;;;;;;;3.43;2.30;;;;;;;4.63;99.96;96425.53;5038548;28;20235;-83
2022/04/10 01:25:43;;;;;;;2.70;2.20;;;;;;;4.78;99.72;96429.78;5036410;28;20229;-83
2022/04/10 01:28:12;;;;;;;3.00;2.37;;;;;;;4.81;100.00;96437.44;5033672;28;20207;-83
2022/04/10 01:30:43;;;;;;;2.50;2.30;;;;;;;4.84;99.71;96428.22;5033512;28;20205;-82
2022/04/10 01:33:10;;;;;;;2.63;2.07;;;;;;;4.87;99.77;96423.28;5034019;28;20215;-83
2022/04/10 01:35:38;;;;;;;2.60;2.10;;;;;;;4.94;99.64;96429.50;5034207;28;20207;-82
2022/04/10 01:38:08;;;;;;;2.97;2.33;;;;;;;4.93;99.45;96432.41;5035220;28;20307;-82
2022/04/10 01:40:42;;;;;;;3.17;2.23;;;;;;;4.91;100.00;96434.44;5037711;28;20202;-83
2022/04/10 01:43:09;;;;;;;2.93;2.10;;;;;;;4.90;100.00;96433.63;5042335;28;20210;-83
2022/04/10 01:45:36;;;;;;;2.93;2.13;;;;;;;4.91;100.00;96442.47;5033618;28;20249;-82
2022/04/10 01:48:05;;;;;;;2.53;2.33;;;;;;;4.88;100.00;96457.06;5037349;28;20279;-83
2022/04/10 01:50:32;;;;;;;2.70;2.20;;;;;;;4.74;100.00;96446.44;5033795;28;20292;-82
2022/04/10 01:52:59;;;;;;;2.70;2.27;;;;;;;4.80;100.00;96451.00;5035537;28;20212;-82
2022/04/10 01:55:28;;;;;;;3.60;2.20;;;;;;;4.84;100.00;96449.63;5033125;28;20203;-82
2022/04/10 01:57:56;;;;;;;3.27;2.20;;;;;;;4.88;99.96;96445.53;5036903;28;20214;-83
2022/04/10 02:00:23;;;;;;;3.40;2.47;;;;;;;4.91;99.55;96445.16;5035356;28;20242;-82
2022/04/10 02:02:51;;;;;;;2.50;2.30;;;;;;;4.87;99.58;96443.84;5054205;28;20293;-83
2022/04/10 02:05:20;;;;;;;2.20;2.00;;;;;;;4.91;100.00;96448.66;5031101;28;20238;-82
2022/04/10 02:07:47;;;;;;;2.87;2.10;;;;;;;4.85;100.00;96437.88;5040730;28;20244;-82
2022/04/10 02:10:15;;;;;;;3.20;2.30;;;;;;;4.81;100.00;96431.25;5040564;28;20198;-82
2022/04/10 02:12:42;;;;;;;2.50;2.20;;;;;;;4.80;100.00;96445.66;5041165;28;20229;-83
2022/04/10 02:15:10;;;;;;;3.43;2.20;;;;;;;4.77;100.00;96443.34;5038388;28;20191;-82
2022/04/10 02:17:38;;;;;;;3.80;2.60;;;;;;;4.68;100.00;96456.03;5056492;28;20222;-82
2022/04/10 02:20:07;;;;;;;2.53;2.30;;;;;;;4.66;100.00;96451.91;5037027;28;20203;-82
2022/04/10 02:22:34;;;;;;;2.80;2.30;;;;;;;4.64;100.00;96451.25;5043159;28;20202;-83
2022/04/10 02:25:02;;;;;;;3.37;2.33;;;;;;;4.67;100.00;96448.22;5035487;28;20253;-82
2022/04/10 02:27:29;;;;;;;4.27;2.60;;;;;;;4.61;100.00;96443.59;5031597;28;20279;-82
2022/04/10 02:29:56;;;;;;;2.90;2.27;;;;;;;4.56;100.00;96450.38;5040024;28;20308;-83
2022/04/10 02:32:26;;;;;;;3.50;2.67;;;;;;;4.49;100.00;96436.13;5035334;28;20298;-83
2022/04/10 02:34:54;;;;;;;2.50;2.30;;;;;;;4.53;100.00;96450.75;5039148;28;20234;-83
2022/04/10 02:37:21;;;;;;;2.37;2.17;;;;;;;4.46;100.00;96451.69;5032749;28;20253;-83
2022/04/10 02:39:49;;;;;;;2.80;2.20;;;;;;;4.36;100.00;96453.84;5031625;28;20206;-82
2022/04/10 02:42:16;;;;;;;3.30;2.00;;;;;;;4.36;100.00;96446.66;5041089;28;20225;-82
2022/04/10 02:44:43;;;;;;;3.80;2.30;;;;;;;4.40;100.00;96447.94;5034885;28;20214;-82
2022/04/10 02:47:10;;;;;;;2.47;2.27;;;;;;;4.38;100.00;96441.94;5035508;28;20254;-83
2022/04/10 02:49:38;;;;;;;3.73;2.00;;;;;;;4.48;100.00;96458.53;5039287;28;20210;-82
2022/04/10 02:52:06;;;;;;;2.43;1.90;;;;;;;4.48;100.00;96455.84;5035660;28;20206;-82
2022/04/10 02:54:33;;;;;;;2.50;1.90;;;;;;;4.45;100.00;96456.22;5039181;28;20210;-82
2022/04/10 02:57:00;;;;;;;2.03;1.80;;;;;;;4.49;100.00;96454.81;5043433;28;20209;-83
2022/04/10 02:59:27;;;;;;;2.00;1.80;;;;;;;4.36;100.00;96445.81;5043347;28;20233;-83
2022/04/10 03:01:55;;;;;;;2.30;2.03;;;;;;;4.39;100.00;96454.31;5038633;28;20223;-83
2022/04/10 03:04:22;;;;;;;1.90;1.70;;;;;;;4.38;100.00;96447.28;5039340;28;20314;-82
2022/04/10 03:06:51;;;;;;;3.37;2.37;;;;;;;4.38;100.00;96439.28;5037873;28;20243;-82
2022/04/10 03:09:18;;;;;;;2.20;1.90;;;;;;;4.45;100.00;96442.00;5035901;28;20199;-82
2022/04/10 03:11:45;;;;;;;2.80;2.20;;;;;;;4.52;100.00;96440.22;5042907;28;20206;-83
2022/04/10 03:14:12;;;;;;;2.73;2.23;;;;;;;4.44;100.00;96435.84;5039408;28;20203;-82
2022/04/10 03:16:39;;;;;;;3.60;2.50;;;;;;;4.47;100.00;96451.50;5037749;28;20329;-83
2022/04/10 03:19:07;;;;;;;3.93;2.60;;;;;;;4.49;100.00;96445.97;5040004;28;20210;-82
2022/04/10 03:21:34;;;;;;;3.00;2.47;;;;;;;4.43;100.00;96442.19;5040705;28;20207;-82
2022/04/10 03:24:04;;;;;;;3.73;2.43;;;;;;;4.47;100.00;96438.16;5041458;28;20234;-83
2022/04/10 03:26:31;;;;;;;3.13;2.27;;;;;;;4.45;100.00;96432.16;5037688;28;20222;-83
2022/04/10 03:28:59;;;;;;;4.00;2.37;;;;;;;4.42;100.00;96429.84;5033728;28;20203;-82
2022/04/10 03:31:26;;;;;;;4.13;2.60;;;;;;;4.53;100.00;96431.19;5042265;28;20225;-82
2022/04/10 03:33:55;;;;;;;2.80;2.57;;;;;;;4.50;100.00;96437.78;5034506;28;20294;-83
2022/04/10 03:36:22;;;;;;;3.40;2.40;;;;;;;4.50;100.00;96445.78;5039513;28;20207;-82
2022/04/10 03:38:50;;;;;;;2.97;2.20;;;;;;;4.53;100.00;96442.72;5039828;28;20251;-82
2022/04/10 03:41:19;;;;;;;3.43;2.10;;;;;;;4.52;100.00;96451.75;5035207;28;20273;-82
2022/04/10 03:43:46;;;;;;;3.27;2.20;;;;;;;4.51;100.00;96449.25;5033640;28;20206;-83
2022/04/10 03:46:14;;;;;;;2.47;2.20;;;;;;;4.46;100.00;96441.00;5058265;28;20268;-82
2022/04/10 03:48:41;;;;;;;2.33;2.13;;;;;;;4.51;100.00;96454.63;5035518;28;20206;-82
2022/04/10 03:51:08;;;;;;;2.70;2.40;;;;;;;4.52;100.00;96451.75;5041629;28;20262;-83
2022/04/10 03:53:37;;;;;;;3.37;2.30;;;;;;;4.44;100.00;96454.56;5037680;28;20241;-82
2022/04/10 03:56:05;;;;;;;3.20;2.50;;;;;;;4.46;100.00;96457.88;5031798;28;20222;-82
2022/04/10 03:58:35;;;;;;;4.50;2.43;;;;;;;4.45;100.00;96461.56;5037854;28;20198;-82
2022/04/10 04:01:03;;;;;;;4.03;2.47;;;;;;;4.42;100.00;96456.56;5032885;28;20213;-82
2022/04/10 04:03:30;;;;;;;3.40;2.70;;;;;;;4.47;100.00;96469.41;5039555;28;20199;-82
2022/04/10 04:05:58;;;;;;;2.87;2.57;;;;;;;4.47;100.00;96458.69;5032358;28;20234;-82
2022/04/10 04:08:25;;;;;;;3.10;2.80;;;;;;;4.45;100.00;96466.91;5039575;28;20268;-83
2022/04/10 04:10:53;;;;;;;2.90;2.53;;;;;;;4.45;100.00;96480.28;5035859;28;20217;-82
2022/04/10 04:13:22;;;;;;;4.67;2.77;;;;;;;4.49;100.00;96478.06;5031940;28;20203;-83
2022/04/10 04:15:51;;;;;;;3.40;2.67;;;;;;;4.49;100.00;96478.91;5036686;28;20264;-83
2022/04/10 04:18:19;;;;;;;3.97;2.60;;;;;;;4.55;100.00;96482.66;5039346;28;20209;-82
2022/04/10 04:20:46;;;;;;;2.83;2.63;;;;;;;4.54;100.00;96476.47;5035163;28;20206;-83
2022/04/10 04:23:15;;;;;;;2.97;2.70;;;;;;;4.54;100.00;96476.47;5040044;28;20209;-82
2022/04/10 04:25:42;;;;;;;5.23;3.17;;;;;;;4.53;100.00;96474.81;5043951;28;20296;-82
2022/04/10 04:28:12;;;;;;;3.20;2.70;;;;;;;4.48;100.00;96493.28;5040106;28;20210;-83
2022/04/10 04:30:40;;;;;;;5.00;3.20;;;;;;;4.50;100.00;96493.09;5058394;28;20202;-83
2022/04/10 04:33:08;;;;;;;4.03;2.90;;;;;;;4.48;100.00;96493.28;5043857;28;20202;-82
2022/04/10 04:35:36;;;;;;;5.10;2.87;;;;;;;4.52;100.00;96491.88;5040726;28;20265;-82
2022/04/10 04:38:04;;;;;;;3.17;2.87;;;;;;;4.53;100.00;96496.19;5040786;28;20198;-83
2022/04/10 04:40:32;;;;;;;3.20;2.73;;;;;;;4.47;100.00;96493.47;5041351;28;20206;-81
2022/04/10 04:42:59;;;;;;;5.50;3.10;;;;;;;4.52;100.00;96499.06;5040371;28;20206;-82
2022/04/10 04:45:30;;;;;;;3.30;2.90;;;;;;;4.55;100.00;96493.34;5035775;28;20208;-82
2022/04/10 04:48:04;;;;;;;3.37;3.07;;;;;;;4.55;100.00;96504.88;5038462;28;20290;-83
2022/04/10 04:50:34;;;;;;;2.97;2.77;;;;;;;4.54;100.00;96495.19;5042034;28;20205;-82
2022/04/10 04:53:02;;;;;;;3.40;3.10;;;;;;;4.53;100.00;96506.06;5057059;28;20202;-82
2022/04/10 04:55:30;;;;;;;3.13;2.80;;;;;;;4.50;100.00;96496.59;5039149;28;20203;-81
2022/04/10 04:57:58;;;;;;;4.17;2.63;;;;;;;4.50;100.00;96506.47;5040269;28;20218;-82
2022/04/10 05:00:27;;;;;;;3.37;2.80;;;;;;;4.58;100.00;96509.03;5043305;28;20206;-82
2022/04/10 05:02:59;;;;;;;2.77;2.57;;;;;;;4.53;100.00;96495.38;5035549;28;20234;-82
2022/04/10 05:05:27;;;;;;;4.87;2.73;;;;;;;4.50;100.00;96501.94;5037001;28;20234;-81
2022/04/10 05:07:58;;;;;;;2.77;2.50;;;;;;;4.51;100.00;96492.06;5036293;28;20219;-83
2022/04/10 05:10:25;;;;;;;4.03;2.97;;;;;;;4.51;100.00;96508.91;5029691;28;20214;-82
2022/04/10 05:12:54;;;;;;;3.43;2.50;;;;;;;4.60;100.00;96509.63;5041830;28;20248;-82
2022/04/10 05:15:25;;;;;;;3.53;2.70;;;;;;;4.57;100.00;96513.53;5027815;28;20205;-82
2022/04/10 05:17:53;;;;;;;3.73;2.70;;;;;;;4.52;100.00;96520.44;5030920;28;20295;-82
2022/04/10 05:20:22;;;;;;;3.00;2.67;;;;;;;4.57;100.00;96518.06;5037764;28;20249;-82
2022/04/10 05:23:11;;;;;;;2.87;2.23;;;;;;;4.60;100.00;96525.69;5033043;28;20284;-82
2022/04/10 05:25:41;;;;;;;2.40;2.20;;;;;;;4.62;100.00;96530.84;5037522;28;20206;-82
2022/04/10 05:28:09;;;;;;;3.50;2.37;;;;;;;4.67;100.00;96539.16;5034324;28;20230;-82
2022/04/10 05:30:37;;;;;;;3.97;2.70;;;;;;;4.66;100.00;96548.19;5035784;28;20238;-82
2022/04/10 05:33:05;;;;;;;3.70;2.40;;;;;;;4.67;100.00;96549.84;5039983;28;20198;-83
2022/04/10 05:35:33;;;;;;;3.20;2.90;;;;;;;4.69;100.00;96548.63;5038720;28;20202;-82
2022/04/10 05:38:01;;;;;;;2.30;2.10;;;;;;;4.72;100.00;96552.78;5035977;28;20203;-83
2022/04/10 05:40:30;;;;;;;3.40;2.70;;;;;;;4.65;100.00;96558.06;5033088;28;20199;-82
2022/04/10 05:42:58;;;;;;;4.10;3.00;;;;;;;4.69;100.00;96556.66;5049961;28;20201;-82
2022/04/10 05:45:26;;;;;;;3.63;2.90;;;;;;;4.67;100.00;96556.03;5039459;28;20217;-82
2022/04/10 05:47:55;;;;;;;3.00;2.70;;;;;;;4.67;100.00;96563.22;5055664;28;20217;-83
2022/04/10 05:50:28;;;;;;;3.30;2.17;;;;;;;4.69;100.00;96553.16;5039969;28;20217;-83
2022/04/10 05:52:55;;;;;;;3.67;2.70;;;;;;;4.75;100.00;96552.41;5037651;28;20195;-83
2022/04/10 05:55:28;;;;;;;2.87;2.30;;;;;;;4.81;100.00;96565.03;5032247;28;20199;-82
2022/04/10 05:57:58;;;;;;;3.73;2.50;;;;;;;4.84;100.00;96570.00;5032443;28;20217;-82
2022/04/10 06:00:26;;;;;;;3.13;2.70;;;;;;;4.89;100.00;96568.41;5055843;28;20217;-83
2022/04/10 06:03:13;;;;;;;2.90;2.47;;;;;;;4.94;100.00;96578.53;5037189;28;20232;-82
2022/04/10 06:05:44;;;;;;;2.80;2.50;;;;;;;4.99;100.00;96586.00;5038627;28;20249;-83
2022/04/10 06:08:19;;;;;;;2.60;2.30;;;;;;;4.90;100.00;96578.09;5056458;28;20224;-82
2022/04/10 06:10:46;;;;;;;2.30;2.10;;;;;;;4.92;100.00;96581.41;5037520;28;20214;-82
2022/04/10 06:13:15;;;;;;;3.27;1.90;;;;;;;5.07;99.73;96581.38;5042047;28;20224;-83
2022/04/10 06:15:50;;;;;;;3.67;2.30;;;;;;;5.04;99.85;96595.13;5030179;28;20217;-82
2022/04/10 06:18:18;;;;;;;2.30;1.97;;;;;;;5.11;97.72;96601.38;5034700;28;20217;-82
2022/04/10 06:20:45;;;;;;;2.03;1.83;;;;;;;5.10;98.12;96607.75;5035197;28;20225;-83
2022/04/10 06:23:13;;;;;;;2.67;2.10;;;;;;;5.08;98.13;96599.09;5035965;28;20199;-82
2022/04/10 06:25:42;;;;;;;2.30;2.10;;;;;;;5.13;97.93;96596.66;5040469;28;20230;-83
2022/04/10 06:28:11;;;;;;;2.30;2.10;;;;;;;5.17;98.44;96600.63;5047077;28;20244;-83
2022/04/10 06:30:45;;;;;;;2.60;2.27;;;;;;;5.16;97.61;96615.03;5043271;28;20213;-82
2022/04/10 06:33:14;;;;;;;2.40;1.93;;;;;;;5.07;98.18;96612.66;5037757;28;20210;-83
2022/04/10 06:35:41;;;;;;;2.33;2.13;;;;;;;5.04;99.30;96624.56;5042020;28;20217;-83
2022/04/10 06:38:09;;;;;;;2.63;2.10;;;;;;;5.07;99.92;96626.03;5037609;28;20214;-83
2022/04/10 06:40:37;;;;;;;2.37;2.13;;;;;;;5.07;100.00;96637.56;5040605;28;20242;-83
2022/04/10 06:43:06;;;;;;;2.57;2.37;;;;;;;5.02;98.52;96637.28;5041107;28;20222;-82
2022/04/10 06:45:53;;;;;;;2.47;2.27;;;;;;;5.07;98.73;96626.03;5046750;28;20214;-82
2022/04/10 06:48:27;;;;;;;2.27;2.07;;;;;;;5.06;98.59;96635.91;5041649;28;20225;-82
2022/04/10 06:50:55;;;;;;;2.67;2.33;;;;;;;5.03;98.05;96633.59;5041753;28;20210;-83
2022/04/10 06:53:28;;;;;;;2.27;1.93;;;;;;;5.08;97.71;96641.06;5043126;28;20206;-83
2022/04/10 06:55:55;;;;;;;2.43;2.07;;;;;;;5.06;97.41;96630.56;5039044;28;20210;-82
2022/04/10 06:58:23;;;;;;;2.00;1.80;;;;;;;5.14;98.00;96633.13;5038641;28;20206;-82
2022/04/10 07:00:53;;;;;;;3.43;2.50;;;;;;;5.16;99.19;96630.25;5037292;28;20203;-82
2022/04/10 07:03:21;;;;;;;2.57;2.30;;;;;;;5.14;100.00;96630.44;5034678;28;20207;-82
2022/04/10 07:05:49;;;;;;;2.60;2.40;;;;;;;5.28;98.99;96639.41;5039382;28;20237;-82
2022/04/10 07:08:22;;;;;;;2.30;2.10;;;;;;;5.23;97.02;96637.34;5039320;28;20231;-83
2022/04/10 07:10:49;;;;;;;2.73;2.33;;;;;;;5.34;96.68;96633.34;5043538;28;20205;-82
2022/04/10 07:13:18;;;;;;;2.97;2.40;;;;;;;5.35;96.78;96626.13;5043068;28;20202;-82
2022/04/10 07:15:46;;;;;;;3.57;2.30;;;;;;;5.39;96.82;96620.19;5034390;28;20207;-82
2022/04/10 07:18:14;;;;;;;2.47;2.10;;;;;;;5.37;95.76;96622.22;5055373;28;20211;-82
2022/04/10 07:20:42;;;;;;;2.57;2.20;;;;;;;5.38;94.05;96621.19;5054501;28;20218;-82
2022/04/10 07:25:56;;;;;;;2.53;2.30;;;;;;;5.59;94.83;96620.38;5036563;28;20220;-83
2022/04/10 07:28:24;;;;;;;3.00;2.17;;;;;;;5.70;95.70;96631.38;5045007;28;20264;-82
2022/04/10 07:30:55;;;;;;;2.30;2.10;;;;;;;5.72;94.26;96629.34;5042273;28;20218;-82
2022/04/10 07:33:24;;;;;;;2.67;2.20;;;;;;;5.79;94.29;96628.56;5034574;28;20213;-82
2022/04/10 07:35:58;;;;;;;2.27;2.00;;;;;;;5.87;93.48;96634.63;5037566;28;20206;-82
2022/04/10 07:38:33;;;;;;;2.00;1.80;;;;;;;5.96;92.83;96632.66;5042441;28;20233;-82
2022/04/10 07:41:05;;;;;;;2.73;2.10;;;;;;;6.05;92.60;96636.84;5044314;28;20261;-82
2022/04/10 07:43:38;;;;;;;2.87;2.00;;;;;;;6.22;92.03;96634.69;5036920;28;20202;-83
2022/04/10 07:49:10;;;;;;;3.07;2.40;;;;;;;6.32;90.96;96644.06;4976873;28;20210;-82
2022/04/10 07:51:47;;;;;;;1.80;1.70;;;;;;;6.33;87.81;96639.53;5045688;28;20205;-82
2022/04/10 07:54:20;;;;;;;1.57;1.47;;;;;;;6.33;88.58;96640.38;5060450;28;20297;-82
2022/04/10 07:56:48;;;;;;;1.90;1.70;;;;;;;6.35;88.23;96643.69;5066938;28;20310;-81
2022/04/10 07:59:20;;;;;;;2.27;1.53;;;;;;;6.35;87.47;96642.84;5046837;28;20218;-82
2022/04/10 08:01:47;;;;;;;2.10;1.50;;;;;;;6.36;86.77;96644.50;5046627;28;20297;-82
2022/04/10 08:04:22;;;;;;;2.37;1.80;;;;;;;6.45;85.97;96656.75;5043691;28;20265;-82
2022/04/10 08:06:59;;;;;;;2.10;1.90;;;;;;;6.45;86.95;96659.44;5047245;28;20229;-82
2022/04/10 08:09:26;;;;;;;1.90;1.70;;;;;;;6.48;86.09;96659.00;5040345;28;20207;-83
2022/04/10 08:11:54;;;;;;;1.97;1.70;;;;;;;6.47;87.34;96646.63;5045581;28;20194;-83
2022/04/10 08:14:21;;;;;;;1.70;1.60;;;;;;;6.50;86.66;96648.09;5065441;28;20206;-83
2022/04/10 08:16:48;;;;;;;2.17;1.70;;;;;;;6.51;84.15;96655.94;5044185;28;20210;-83
2022/04/10 08:19:16;;;;;;;1.90;1.70;;;;;;;6.47;84.64;96650.13;5045244;28;20206;-82
2022/04/10 08:21:44;;;;;;;3.63;1.70;;;;;;;6.53;85.02;96656.59;5040102;28;20202;-82
2022/04/10 08:24:11;;;;;;;4.40;1.63;;;;;;;6.59;83.18;96654.97;5042405;28;20295;-82
2022/04/10 08:26:38;;;;;;;2.13;1.80;;;;;;;6.76;81.90;96656.28;5046763;28;20216;-82
2022/04/10 08:29:06;;;;;;;2.97;2.07;;;;;;;6.90;82.93;96643.75;5039675;28;20222;-82
2022/04/10 08:31:33;;;;;;;2.10;1.67;;;;;;;7.04;81.05;96653.53;5037835;28;20214;-83
2022/04/10 08:34:00;;;;;;;2.90;1.70;;;;;;;7.18;80.94;96653.38;5046418;28;20224;-82
2022/04/10 08:36:27;;;;;;;1.90;1.77;;;;;;;7.40;79.91;96654.03;5036734;28;20206;-82
2022/04/10 08:38:56;;;;;;;2.17;1.80;;;;;;;7.67;77.71;96662.16;5045811;28;20271;-82
2022/04/10 08:41:31;;;;;;;1.97;1.77;;;;;;;7.70;76.31;96654.53;5041596;28;20206;-83
2022/04/10 08:44:01;;;;;;;2.10;1.60;;;;;;;7.91;75.32;96662.41;5042516;28;20209;-83
2022/04/10 08:46:29;;;;;;;2.27;1.83;;;;;;;8.25;73.91;96653.28;5047131;28;20240;-82
2022/04/10 08:48:57;;;;;;;3.43;1.60;;;;;;;8.14;73.34;96656.63;5050389;28;20232;-82
2022/04/10 08:51:25;;;;;;;2.30;1.70;;;;;;;8.35;73.13;96666.34;5041417;28;20323;-82
2022/04/10 08:53:55;;;;;;;1.40;1.30;;;;;;;8.63;72.97;96676.88;5044622;28;20297;-82
2022/04/10 08:56:23;;;;;;;1.40;1.30;;;;;;;8.88;69.22;96671.66;5047629;28;20225;-83
2022/04/10 08:58:50;;;;;;;2.73;1.60;;;;;;;9.20;68.98;96676.09;5037617;28;20273;-82
2022/04/10 09:01:20;;;;;;;1.57;1.27;;;;;;;9.55;66.65;96671.16;5042823;28;20206;-82
2022/04/10 09:03:47;;;;;;;2.60;1.47;;;;;;;9.77;65.54;96679.75;5048828;28;20217;-82
2022/04/10 09:06:15;;;;;;;1.53;1.43;;;;;;;10.07;66.14;96671.84;5000138;28;20212;-82
2022/04/10 09:08:43;;;;;;;1.80;1.70;;;;;;;10.20;63.86;96674.50;5007686;28;20230;-82
2022/04/10 09:11:13;;;;;;;2.00;1.60;;;;;;;10.06;63.25;96662.09;4999158;28;20215;-83
2022/04/10 09:13:41;;;;;;;1.80;1.50;;;;;;;10.21;65.10;96663.47;4992694;28;20263;-82
2022/04/10 09:16:11;;;;;;;1.60;1.50;;;;;;;10.39;62.24;96668.09;5000293;28;20201;-82
2022/04/10 09:18:50;;;;;;;1.80;1.40;;;;;;;10.52;60.33;96667.16;4994016;28;20211;-83
2022/04/10 09:21:18;;;;;;;1.50;1.40;;;;;;;10.50;62.41;96667.38;4998830;28;20400;-82
2022/04/10 09:23:53;;;;;;;1.30;1.20;;;;;;;10.56;58.01;96654.84;5004302;28;20314;-83
2022/04/10 09:26:22;;;;;;;2.37;1.40;;;;;;;10.39;61.09;96660.00;4998434;28;20234;-83
2022/04/10 09:28:56;;;;;;;1.40;1.30;;;;;;;10.17;61.25;96664.09;5002246;28;20227;-83
2022/04/10 09:31:34;;;;;;;1.40;1.30;;;;;;;10.19;61.01;96662.06;5002277;28;20266;-84
2022/04/10 09:34:03;;;;;;;1.00;1.00;;;;;;;10.37;62.51;96656.72;4997667;28;20266;-83
2022/04/10 09:36:39;;;;;;;1.40;1.30;;;;;;;10.72;59.99;96666.97;4996427;28;20387;-84
2022/04/10 09:39:10;;;;;;;1.77;1.50;;;;;;;10.75;58.35;96661.09;5001513;28;20239;-84
2022/04/10 09:41:40;;;;;;;2.90;1.50;;;;;;;10.61;58.67;96655.84;5003712;28;20203;-84
2022/04/10 09:44:13;;;;;;;1.50;1.40;;;;;;;10.82;58.70;96657.28;4997372;28;20303;-84
2022/04/10 09:46:40;;;;;;;1.67;1.40;;;;;;;10.76;59.06;96657.34;5000377;28;20238;-83
2022/04/10 09:49:14;;;;;;;2.10;1.47;;;;;;;10.71;57.62;96654.50;5008264;28;20316;-84
2022/04/10 09:52:00;;;;;;;1.67;1.33;;;;;;;10.76;57.56;96654.66;4992718;28;20211;-84
2022/04/10 09:54:34;;;;;;;1.97;1.60;;;;;;;10.72;56.68;96651.56;5012251;28;20212;-84
2022/04/10 09:57:04;;;;;;;1.53;1.20;;;;;;;10.65;56.29;96650.81;4998526;28;20207;-84
2022/04/10 09:59:40;;;;;;;4.50;1.20;;;;;;;10.62;55.65;96643.19;5000098;28;20211;-83
2022/04/10 10:02:08;;;;;;;1.00;1.00;;;;;;;10.68;54.72;96633.34;4994627;28;20281;-84
2022/04/10 10:05:19;;;;;;;;;;;;;;;;;;;;;
2022/04/10 10:08:11;;;;;;;2.13;1.40;;;;;;;11.05;57.04;96628.78;5025000;28;20237;-84
2022/04/10 10:10:39;;;;;;;1.20;1.10;;;;;;;11.07;54.07;96613.13;5038919;28;20253;-84
2022/04/10 10:13:08;;;;;;;1.30;1.20;;;;;;;11.18;53.90;96620.50;5055554;28;20202;-85
2022/04/10 10:15:36;;;;;;;1.30;1.20;;;;;;;11.14;52.98;96617.44;5037325;28;20202;-84
2022/04/10 10:18:05;;;;;;;1.40;1.30;;;;;;;11.13;52.88;96612.25;5040500;28;20289;-84
2022/04/10 10:20:34;;;;;;;1.33;1.23;;;;;;;11.16;53.43;96609.91;5033145;28;20210;-84
2022/04/10 10:23:02;;;;;;;1.20;1.10;;;;;;;11.20;51.46;96594.91;5031877;28;20210;-85
2022/04/10 10:25:36;;;;;;;2.30;1.20;;;;;;;11.22;52.49;96595.50;5035597;28;20210;-85
2022/04/10 10:28:41;;;;;;;1.33;1.23;;;;;;;11.48;52.68;96597.03;5032514;28;20283;-84
2022/04/10 10:31:26;;;;;;;1.63;1.10;;;;;;;11.61;50.38;96596.81;5023014;28;20203;-85
2022/04/10 10:33:57;;;;;;;1.10;1.00;;;;;;;11.70;50.02;96594.59;5035243;28;20222;-84
2022/04/10 10:36:26;;;;;;;1.30;1.20;;;;;;;11.73;49.81;96602.28;5036925;28;20235;-85
2022/04/10 10:38:55;;;;;;;1.67;1.00;;;;;;;11.75;48.75;96581.22;5036605;28;20293;-85
2022/04/10 10:41:35;;;;;;;2.10;0.90;;;;;;;11.55;46.32;96596.91;5034538;28;20294;-85
2022/04/10 10:44:31;;;;;;;1.73;1.20;;;;;;;11.43;46.70;96593.34;5032498;28;20236;-84
2022/04/10 10:47:02;;;;;;;2.30;1.00;;;;;;;11.58;48.72;96581.03;5013353;28;20206;-85
2022/04/10 10:49:30;;;;;;;1.10;1.00;;;;;;;11.71;48.98;96580.84;5038140;28;20237;-84
2022/04/10 10:51:59;;;;;;;1.30;1.20;;;;;;;12.05;48.04;96576.59;5039895;28;20206;-84
2022/04/10 10:54:32;;;;;;;1.17;0.97;;;;;;;12.08;44.69;96576.09;5032151;28;20268;-85
2022/04/10 10:57:00;;;;;;;1.10;1.00;;;;;;;12.19;46.62;96579.06;5029099;28;20292;-84
2022/04/10 10:59:36;;;;;;;1.00;1.00;;;;;;;12.27;46.37;96590.38;5039344;28;20214;-84
2022/04/10 11:02:06;;;;;;;1.00;0.90;;;;;;;12.27;46.73;96581.41;5054725;28;20214;-84
2022/04/10 11:04:36;;;;;;;1.47;0.90;;;;;;;12.23;44.48;96577.56;5040251;28;20243;-84
2022/04/10 11:07:24;;;;;;;1.70;1.07;;;;;;;12.33;44.36;96572.38;5044549;28;20212;-84
2022/04/10 11:09:55;;;;;;;0.80;0.80;;;;;;;12.37;46.78;96571.66;5042047;28;20481;-84
2022/04/10 11:12:24;;;;;;;1.00;0.90;;;;;;;12.73;45.65;96573.28;5039594;28;20305;-85
2022/04/10 11:14:56;;;;;;;2.27;1.00;;;;;;;12.79;44.90;96569.59;5048087;28;20293;-84
2022/04/10 11:17:28;;;;;;;1.10;1.00;;;;;;;12.89;45.12;96567.13;5034925;28;20210;-84
2022/04/10 11:19:58;;;;;;;0.97;0.83;;;;;;;12.91;42.43;96557.94;5040419;28;20202;-84
2022/04/10 11:22:30;;;;;;;1.53;1.30;;;;;;;13.15;42.37;96554.94;5037659;28;20216;-84
2022/04/10 11:25:00;;;;;;;1.87;1.00;;;;;;;13.07;41.69;96549.84;5037591;28;20234;-83
2022/04/10 11:27:49;;;;;;;2.77;0.90;;;;;;;13.21;41.62;96553.13;5042878;28;20207;-84
2022/04/10 11:30:22;;;;;;;1.33;1.00;;;;;;;13.35;41.58;96553.69;5038843;28;20207;-84
2022/04/10 11:32:52;;;;;;;1.20;1.00;;;;;;;13.23;41.48;96540.97;5046532;28;20210;-83
2022/04/10 11:35:22;;;;;;;1.03;0.90;;;;;;;12.83;43.00;96549.09;5031297;28;20242;-83
2022/04/10 11:37:51;;;;;;;0.87;0.87;;;;;;;12.83;42.99;96540.16;5055307;28;20214;-84
2022/04/10 11:40:23;;;;;;;1.33;0.80;;;;;;;13.12;40.92;96535.56;5034158;28;20215;-84
2022/04/10 11:42:54;;;;;;;1.00;0.90;;;;;;;13.46;40.51;96534.63;5030837;28;20214;-84
2022/04/10 11:45:25;;;;;;;0.70;0.70;;;;;;;13.23;39.85;96526.59;5043814;28;20301;-84
2022/04/10 11:47:52;;;;;;;0.77;0.77;;;;;;;13.27;40.58;96544.84;5045022;28;20213;-84
2022/04/10 11:50:20;;;;;;;2.20;1.20;;;;;;;13.12;40.38;96535.56;5044139;28;20209;-85
2022/04/10 11:52:59;;;;;;;1.53;1.27;;;;;;;13.26;40.49;96542.41;5040454;28;20217;-84
2022/04/10 11:55:31;;;;;;;1.47;1.00;;;;;;;13.42;39.75;96541.63;5038385;28;20205;-84
2022/04/10 11:58:00;;;;;;;0.90;0.90;;;;;;;13.51;39.94;96537.44;5043814;28;20301;-84